Time;durP1;ratioP1;P1;durP2;ratioP2;P2;SDS_P1;SDS_P2;PMS_P1;PMS_P2;Temp;Humidity;BMP_temperature;BMP_pressure;BME280_temperature;BME280_humidity;BME280_pressure;Samples;Min_cycle;Max_cycle;Signal;HPM_P1;HPM_P2
2023/03/01 00:01:22;;;;;;;;;;;;;;;-1.00;100.00;97116.16;5008291;28;19929;-71
2023/03/01 00:03:48;;;;;;;;;;;;;;;-0.87;100.00;97110.13;5001419;28;19929;-71
2023/03/01 00:06:13;;;;;;;;;;;;;;;-0.86;99.97;97113.66;4996468;28;19917;-71
2023/03/01 00:08:39;;;;;;;;;;;;;;;-0.93;99.94;97113.16;5019776;28;19918;-72
2023/03/01 00:11:07;;;;;;;;;;;;;;;-0.94;100.00;97114.25;4999540;28;19921;-70
2023/03/01 00:13:33;;;;;;;;;;;;;;;-0.91;100.00;97111.78;5004170;28;19924;-71
2023/03/01 00:15:58;;;;;;;;;;;;;;;-0.93;100.00;97108.59;5017059;28;19917;-70
2023/03/01 00:18:24;;;;;;;;;;;;;;;-0.87;100.00;97107.44;4996430;28;19922;-70
2023/03/01 00:20:51;;;;;;;;;;;;;;;-0.87;99.87;97106.66;5002015;28;19925;-70
2023/03/01 00:23:16;;;;;;;;;;;;;;;-0.84;100.00;97100.72;4996772;28;19918;-69
2023/03/01 00:25:41;;;;;;;;;;;;;;;-0.86;100.00;97101.00;5001063;28;20371;-70
2023/03/01 00:28:07;;;;;;;;;;;;;;;-0.82;100.00;97104.72;4994891;28;19976;-72
2023/03/01 00:30:32;;;;;;;;;;;;;;;-0.77;100.00;97096.59;5000586;28;20355;-70
2023/03/01 00:32:58;;;;;;;;;;;;;;;-0.83;100.00;97103.13;4999576;28;19918;-71
2023/03/01 00:35:23;;;;;;;;;;;;;;;-0.85;100.00;97089.13;4995327;28;19914;-71
2023/03/01 00:37:57;;;;;;;;;;;;;;;-0.81;100.00;97094.75;5001204;28;19917;-72
2023/03/01 00:40:29;;;;;;;;;;;;;;;-0.82;100.00;97085.88;4994436;28;20735;-68
2023/03/01 00:42:54;;;;;;;;;;;;;;;-0.74;99.35;97089.03;5012844;28;19932;-73
2023/03/01 00:45:20;;;;;;;;;;;;;;;-0.73;99.76;97077.22;5019383;28;19921;-70
2023/03/01 00:47:45;;;;;;;;;;;;;;;-0.73;100.00;97086.06;5024459;28;19917;-72
2023/03/01 00:50:11;;;;;;;;;;;;;;;-0.73;100.00;97094.16;5019479;28;20279;-71
2023/03/01 00:52:36;;;;;;;;;;;;;;;-0.77;100.00;97090.44;5021637;28;19917;-71
2023/03/01 00:55:02;;;;;;;;;;;;;;;-0.78;100.00;97081.53;5023704;28;19917;-70
2023/03/01 00:57:28;;;;;;;;;;;;;;;-0.74;100.00;97083.66;5019164;28;19971;-72
2023/03/01 00:59:53;;;;;;;;;;;;;;;-0.75;100.00;97079.38;5023999;28;20321;-71
2023/03/01 01:02:19;;;;;;;;;;;;;;;-0.73;100.00;97077.22;5003227;28;20368;-71
2023/03/01 01:04:44;;;;;;;;;;;;;;;-0.72;100.00;97074.25;5003870;28;19925;-71
2023/03/01 01:07:10;;;;;;;;;;;;;;;-0.74;100.00;97073.69;5003090;28;19925;-70
2023/03/01 01:09:36;;;;;;;;;;;;;;;-0.76;100.00;97065.13;5024091;28;19917;-72
2023/03/01 01:12:01;;;;;;;;;;;;;;;-0.74;100.00;97059.47;5023252;28;20277;-70
2023/03/01 01:14:26;;;;;;;;;;;;;;;-0.60;100.00;97063.88;5020579;28;20461;-69
2023/03/01 01:16:52;;;;;;;;;;;;;;;-0.66;99.93;97054.25;5021840;28;19917;-72
2023/03/01 01:19:17;;;;;;;;;;;;;;;-0.71;100.00;97056.22;5018557;28;19917;-71
2023/03/01 01:21:42;;;;;;;;;;;;;;;-0.66;100.00;97048.88;5023206;28;19967;-71
2023/03/01 01:24:08;;;;;;;;;;;;;;;-0.71;100.00;97050.81;5015926;28;20347;-71
2023/03/01 01:26:34;;;;;;;;;;;;;;;-0.70;100.00;97044.34;5023722;28;20367;-72
2023/03/01 01:29:00;;;;;;;;;;;;;;;-0.72;100.00;97041.97;5020998;28;19921;-70
2023/03/01 01:31:25;;;;;;;;;;;;;;;-0.72;100.00;97033.06;5017086;28;19975;-69
2023/03/01 01:33:51;;;;;;;;;;;;;;;-0.68;100.00;97039.50;5024074;28;19948;-72
2023/03/01 01:36:17;;;;;;;;;;;;;;;-0.68;100.00;97031.44;5016938;28;19960;-72
2023/03/01 01:38:42;;;;;;;;;;;;;;;-0.70;100.00;97033.59;5004514;28;20364;-71
2023/03/01 01:41:08;;;;;;;;;;;;;;;-0.71;100.00;97016.66;5017706;28;19927;-72
2023/03/01 01:43:38;;;;;;;;;;;;;;;-0.68;100.00;97021.47;5023883;28;19960;-70
2023/03/01 01:46:06;;;;;;;;;;;;;;;-0.64;100.00;97027.06;5020051;28;20386;-69
2023/03/01 01:48:41;;;;;;;;;;;;;;;-0.67;100.00;97023.06;5037109;28;19917;-70
2023/03/01 01:51:10;;;;;;;;;;;;;;;-0.61;100.00;97015.75;5037851;28;19917;-70
2023/03/01 01:53:37;;;;;;;;;;;;;;;-0.64;100.00;97011.72;5032877;28;20004;-68
2023/03/01 01:56:03;;;;;;;;;;;;;;;-0.65;100.00;97009.31;5018535;28;20120;-67
2023/03/01 01:58:30;;;;;;;;;;;;;;;-0.66;100.00;97007.75;5019279;28;20074;-69
2023/03/01 02:00:56;;;;;;;;;;;;;;;-0.62;100.00;97008.75;5020078;28;19925;-70
2023/03/01 02:03:29;;;;;;;;;;;;;;;-0.68;100.00;97004.53;4996092;28;20011;-70
2023/03/01 02:05:57;;;;;;;;;;;;;;;-0.65;100.00;96999.38;5005859;28;19921;-72
2023/03/01 02:08:25;;;;;;;;;;;;;;;-0.61;100.00;97003.09;5016153;28;20488;-70
2023/03/01 02:10:51;;;;;;;;;;;;;;;-0.63;100.00;96993.69;5023240;28;19924;-70
2023/03/01 02:13:17;;;;;;;;;;;;;;;-0.59;100.00;96995.53;5016846;28;19964;-70
2023/03/01 02:15:43;;;;;;;;;;;;;;;-0.59;100.00;96992.06;5022100;28;20014;-70
2023/03/01 02:18:19;;;;;;;;;;;;;;;-0.59;100.00;96989.34;5019021;28;19948;-71
2023/03/01 02:20:45;;;;;;;;;;;;;;;-0.53;100.00;96984.72;5029537;28;19925;-71
2023/03/01 02:23:11;;;;;;;;;;;;;;;-0.52;100.00;96987.13;4997684;28;20409;-70
2023/03/01 02:25:55;;;;;;;;;;;;;;;-0.55;100.00;96997.66;5002817;28;20010;-70
2023/03/01 02:28:31;;;;;;;;;;;;;;;-0.55;100.00;96993.06;5000014;28;20295;-72
2023/03/01 02:33:42;;;;;;;;;;;;;;;-0.52;100.00;96989.00;5002092;28;19925;-73
2023/03/01 02:36:18;;;;;;;;;;;;;;;-0.51;100.00;96986.03;4996476;28;20006;-69
2023/03/01 02:38:44;;;;;;;;;;;;;;;-0.47;100.00;96991.63;5000912;28;19917;-70
2023/03/01 02:41:12;;;;;;;;;;;;;;;-0.48;100.00;96985.44;4997386;28;20272;-71
2023/03/01 02:43:37;;;;;;;;;;;;;;;-0.49;100.00;96985.72;5001165;28;19917;-70
2023/03/01 02:46:07;;;;;;;;;;;;;;;-0.51;100.00;96977.94;5000887;28;20055;-69
2023/03/01 02:48:39;;;;;;;;;;;;;;;-0.48;100.00;96987.34;5001525;28;20389;-71
2023/03/01 02:51:05;;;;;;;;;;;;;;;-0.51;100.00;96987.91;4997743;28;20305;-70
2023/03/01 02:53:57;;;;;;;;;;;;;;;-0.49;100.00;96983.03;5002428;28;19917;-72
2023/03/01 02:56:22;;;;;;;;;;;;;;;-0.46;100.00;96960.94;4995977;28;19991;-69
2023/03/01 02:58:51;;;;;;;;;;;;;;;-0.47;100.00;96965.53;5002610;28;19924;-71
2023/03/01 03:01:17;;;;;;;;;;;;;;;-0.43;100.00;96965.75;4995713;28;19929;-72
2023/03/01 03:03:42;;;;;;;;;;;;;;;-0.49;100.00;96969.59;5002855;28;19922;-73
2023/03/01 03:06:07;;;;;;;;;;;;;;;-0.48;100.00;96968.50;4995707;28;19926;-68
2023/03/01 03:08:33;;;;;;;;;;;;;;;-0.50;100.00;96959.94;5018869;28;20278;-71
2023/03/01 03:10:58;;;;;;;;;;;;;;;-0.51;100.00;96964.50;5018970;28;19924;-72
2023/03/01 03:13:28;;;;;;;;;;;;;;;-0.44;100.00;96964.16;5014213;28;20922;-70
2023/03/01 03:15:54;;;;;;;;;;;;;;;-0.49;100.00;96962.31;5024264;28;19971;-71
2023/03/01 03:18:19;;;;;;;;;;;;;;;-0.43;100.00;96960.38;5023723;28;20007;-72
2023/03/01 03:20:45;;;;;;;;;;;;;;;-0.49;100.00;96956.94;5023057;28;20030;-69
2023/03/01 03:23:10;;;;;;;;;;;;;;;-0.41;100.00;96967.06;5013224;28;19924;-67
2023/03/01 03:25:37;;;;;;;;;;;;;;;-0.37;100.00;96959.22;5020768;28;19917;-70
2023/03/01 03:28:09;;;;;;;;;;;;;;;-0.43;100.00;96955.78;5019272;28;19917;-68
2023/03/01 03:30:35;;;;;;;;;;;;;;;-0.36;100.00;96958.13;5021572;28;20256;-70
2023/03/01 03:33:00;;;;;;;;;;;;;;;-0.51;100.00;96961.81;5019860;28;19921;-71
2023/03/01 03:35:30;;;;;;;;;;;;;;;-0.52;100.00;96957.53;5016770;28;19924;-69
2023/03/01 03:38:02;;;;;;;;;;;;;;;-0.50;100.00;96954.56;5024370;28;20025;-70
2023/03/01 03:40:29;;;;;;;;;;;;;;;-0.36;100.00;96966.22;5019098;28;19986;-70
2023/03/01 03:42:55;;;;;;;;;;;;;;;-0.43;100.00;96953.09;5003903;28;19932;-70
2023/03/01 03:45:20;;;;;;;;;;;;;;;-0.60;100.00;96963.53;5017607;28;19921;-72
2023/03/01 03:47:45;;;;;;;;;;;;;;;-0.45;100.00;96957.16;5005351;28;20326;-69
2023/03/01 03:50:12;;;;;;;;;;;;;;;-0.50;100.00;96958.03;4997886;28;20027;-69
2023/03/01 03:52:37;;;;;;;;;;;;;;;-0.62;100.00;96950.38;5003632;28;20291;-71
2023/03/01 03:55:03;;;;;;;;;;;;;;;-0.69;100.00;96962.56;4999172;28;19917;-69
2023/03/01 03:57:28;;;;;;;;;;;;;;;-0.72;100.00;96952.38;4999312;28;19924;-71
2023/03/01 03:59:53;;;;;;;;;;;;;;;-0.69;100.00;96957.97;5006474;28;19917;-71
2023/03/01 04:02:21;;;;;;;;;;;;;;;-0.71;100.00;96954.78;4999401;28;19972;-71
2023/03/01 04:04:50;;;;;;;;;;;;;;;-0.73;100.00;96948.91;5002211;28;20381;-70
2023/03/01 04:07:18;;;;;;;;;;;;;;;-0.70;100.00;96942.13;5005498;28;20411;-70
2023/03/01 04:09:43;;;;;;;;;;;;;;;-0.71;100.00;96945.91;5005330;28;19924;-70
2023/03/01 04:12:09;;;;;;;;;;;;;;;-0.64;100.00;96949.84;5016810;28;19917;-70
2023/03/01 04:14:35;;;;;;;;;;;;;;;-0.56;100.00;96944.94;5021401;28;20017;-70
2023/03/01 04:17:00;;;;;;;;;;;;;;;-0.70;100.00;96931.38;5021027;28;20019;-71
2023/03/01 04:19:26;;;;;;;;;;;;;;;-0.68;100.00;96937.28;5019532;28;19921;-70
2023/03/01 04:21:52;;;;;;;;;;;;;;;-0.71;100.00;96935.94;5023760;28;19995;-71
2023/03/01 04:24:17;;;;;;;;;;;;;;;-0.68;100.00;96937.28;5025179;28;19921;-71
2023/03/01 04:26:43;;;;;;;;;;;;;;;-0.63;100.00;96934.50;5026339;28;19968;-70
2023/03/01 04:29:08;;;;;;;;;;;;;;;-0.59;100.00;96936.34;5019853;28;19922;-71
2023/03/01 04:31:33;;;;;;;;;;;;;;;-0.69;100.00;96939.16;5041664;28;19909;-69
2023/03/01 04:33:59;;;;;;;;;;;;;;;-0.72;100.00;96934.38;5037044;28;19917;-69
2023/03/01 04:36:27;;;;;;;;;;;;;;;-0.67;100.00;96930.81;5017413;28;20329;-71
2023/03/01 04:38:52;;;;;;;;;;;;;;;-0.69;100.00;96932.97;5025935;28;19928;-69
2023/03/01 04:41:19;;;;;;;;;;;;;;;-0.62;100.00;96931.53;5019352;28;20245;-70
2023/03/01 04:43:44;;;;;;;;;;;;;;;-0.41;100.00;96937.47;5026347;28;19921;-71
2023/03/01 04:46:11;;;;;;;;;;;;;;;-0.57;100.00;96941.44;5021219;28;19924;-68
2023/03/01 04:48:37;;;;;;;;;;;;;;;-0.55;100.00;96935.78;5023479;28;19924;-69
2023/03/01 04:51:02;;;;;;;;;;;;;;;-0.68;100.00;96926.53;5010259;28;19918;-69
2023/03/01 04:53:28;;;;;;;;;;;;;;;-0.78;100.00;96936.28;5001469;28;19928;-70
2023/03/01 04:55:55;;;;;;;;;;;;;;;-0.79;100.00;96929.31;5022153;28;20402;-71
2023/03/01 04:58:21;;;;;;;;;;;;;;;-0.78;100.00;96922.84;5004210;28;19924;-70
2023/03/01 05:00:46;;;;;;;;;;;;;;;-0.69;100.00;96928.41;5006337;28;20284;-71
2023/03/01 05:03:11;;;;;;;;;;;;;;;-0.70;100.00;96920.59;5001328;28;19924;-69
2023/03/01 05:05:38;;;;;;;;;;;;;;;-0.70;100.00;96928.69;5003432;28;19921;-70
2023/03/01 05:08:04;;;;;;;;;;;;;;;-0.63;100.00;96913.81;5013654;28;19987;-69
2023/03/01 05:10:31;;;;;;;;;;;;;;;-0.63;100.00;96921.06;5022623;28;19963;-68
2023/03/01 05:12:59;;;;;;;;;;;;;;;-0.62;100.00;96920.78;5024519;28;19917;-72
2023/03/01 05:15:26;;;;;;;;;;;;;;;-0.60;100.00;96910.53;5019179;28;19917;-71
2023/03/01 05:17:52;;;;;;;;;;;;;;;-0.56;100.00;96910.75;5020381;28;20063;-71
2023/03/01 05:20:17;;;;;;;;;;;;;;;-0.56;100.00;96918.81;5019517;28;20638;-72
2023/03/01 05:22:43;;;;;;;;;;;;;;;-0.54;100.00;96916.66;5024041;28;19921;-70
2023/03/01 05:25:08;;;;;;;;;;;;;;;-0.55;100.00;96922.31;5014169;28;19955;-72
2023/03/01 05:27:34;;;;;;;;;;;;;;;-0.57;100.00;96911.06;5020778;28;19924;-71
2023/03/01 05:30:11;;;;;;;;;;;;;;;-0.52;100.00;96905.59;5021856;28;19964;-71
2023/03/01 05:32:38;;;;;;;;;;;;;;;-0.52;100.00;96908.28;5021099;28;19924;-71
2023/03/01 05:35:04;;;;;;;;;;;;;;;-0.53;100.00;96904.78;5021456;28;19921;-71
2023/03/01 05:37:29;;;;;;;;;;;;;;;-0.53;100.00;96906.69;5022931;28;19917;-71
2023/03/01 05:39:54;;;;;;;;;;;;;;;-0.57;100.00;96894.91;5024533;28;19972;-72
2023/03/01 05:42:19;;;;;;;;;;;;;;;-0.56;100.00;96897.28;5020321;28;20382;-71
2023/03/01 05:44:45;;;;;;;;;;;;;;;-0.55;100.00;96890.03;5023769;28;19971;-71
2023/03/01 05:47:10;;;;;;;;;;;;;;;-0.56;100.00;96883.84;5018081;28;20378;-71
2023/03/01 05:49:36;;;;;;;;;;;;;;;-0.56;100.00;96881.16;5023711;28;19917;-71
2023/03/01 05:52:01;;;;;;;;;;;;;;;-0.53;100.00;96877.88;5022967;28;19917;-71
2023/03/01 05:54:26;;;;;;;;;;;;;;;-0.54;100.00;96879.00;5008335;28;19988;-70
2023/03/01 05:56:52;;;;;;;;;;;;;;;-0.46;100.00;96881.00;5004330;28;20044;-71
2023/03/01 05:59:17;;;;;;;;;;;;;;;-0.50;100.00;96877.31;5000699;28;19929;-70
2023/03/01 06:01:43;;;;;;;;;;;;;;;-0.54;100.00;96879.00;5005657;28;19951;-70
2023/03/01 06:04:08;;;;;;;;;;;;;;;-0.54;100.00;96878.16;4998108;28;19921;-70
2023/03/01 06:06:34;;;;;;;;;;;;;;;-0.54;100.00;96876.31;5003213;28;19988;-71
2023/03/01 06:08:59;;;;;;;;;;;;;;;-0.54;100.00;96883.56;5024174;28;20337;-71
2023/03/01 06:11:25;;;;;;;;;;;;;;;-0.54;100.00;96880.84;5017893;28;19928;-70
2023/03/01 06:13:50;;;;;;;;;;;;;;;-0.56;100.00;96896.50;5023739;28;19917;-70
2023/03/01 06:16:15;;;;;;;;;;;;;;;-0.56;100.00;96896.50;5017874;28;19921;-72
2023/03/01 06:18:41;;;;;;;;;;;;;;;-0.54;100.00;96895.13;5024641;28;20366;-70
2023/03/01 06:21:07;;;;;;;;;;;;;;;-0.52;100.00;96898.34;5018738;28;20278;-69
2023/03/01 06:23:33;;;;;;;;;;;;;;;-0.54;100.00;96894.31;5023180;28;20366;-72
2023/03/01 06:25:58;;;;;;;;;;;;;;;-0.55;100.00;96893.53;5020136;28;19917;-72
2023/03/01 06:28:23;;;;;;;;;;;;;;;-0.50;100.00;96890.75;5018548;28;19983;-70
2023/03/01 06:30:52;;;;;;;;;;;;;;;-0.49;100.00;96883.47;5021589;28;19921;-69
2023/03/01 06:33:19;;;;;;;;;;;;;;;-0.53;100.00;96885.16;5018084;28;19924;-70
2023/03/01 06:35:45;;;;;;;;;;;;;;;-0.53;100.00;96887.84;5021187;28;19933;-70
2023/03/01 06:38:10;;;;;;;;;;;;;;;-0.56;100.00;96905.34;5019861;28;19921;-70
2023/03/01 06:40:36;;;;;;;;;;;;;;;-0.53;100.00;96890.53;5020990;28;19968;-70
2023/03/01 06:43:01;;;;;;;;;;;;;;;-0.47;100.00;96892.88;5022804;28;20337;-70
2023/03/01 06:45:26;;;;;;;;;;;;;;;-0.52;100.00;96887.56;5016600;28;20294;-70
2023/03/01 06:47:52;;;;;;;;;;;;;;;-0.50;100.00;96889.97;5023723;28;20008;-70
2023/03/01 06:50:18;;;;;;;;;;;;;;;-0.49;100.00;96895.03;5027542;28;19945;-68
2023/03/01 06:52:44;;;;;;;;;;;;;;;-0.56;100.00;96891.91;5034233;28;19953;-70
2023/03/01 06:55:11;;;;;;;;;;;;;;;-0.53;100.00;96885.97;5036142;28;19920;-68
2023/03/01 06:57:36;;;;;;;;;;;;;;;-0.55;100.00;96896.22;5029136;28;19921;-70
2023/03/01 07:00:03;;;;;;;;;;;;;;;-0.53;100.00;96898.63;5007163;28;19918;-69
2023/03/01 07:02:28;;;;;;;;;;;;;;;-0.53;100.00;96902.09;5000911;28;19928;-71
2023/03/01 07:04:54;;;;;;;;;;;;;;;-0.53;100.00;96898.63;5001858;28;20144;-69
2023/03/01 07:07:19;;;;;;;;;;;;;;;-0.51;100.00;96899.13;4995377;28;19964;-70
2023/03/01 07:09:45;;;;;;;;;;;;;;;-0.47;100.00;96892.88;5001822;28;20016;-72
2023/03/01 07:12:10;;;;;;;;;;;;;;;-0.51;100.00;96896.44;4996314;28;19929;-68
2023/03/01 07:14:36;;;;;;;;;;;;;;;-0.49;100.00;96880.78;5002680;28;20267;-70
2023/03/01 07:17:01;;;;;;;;;;;;;;;-0.50;100.00;96888.06;5000853;28;19925;-71
2023/03/01 07:19:27;;;;;;;;;;;;;;;-0.43;100.00;96890.41;4997806;28;19972;-70
2023/03/01 07:21:52;;;;;;;;;;;;;;;-0.42;100.00;96897.38;5002316;28;19928;-72
2023/03/01 07:24:17;;;;;;;;;;;;;;;-0.51;100.00;96893.75;5008660;28;19921;-71
2023/03/01 07:26:42;;;;;;;;;;;;;;;-0.50;100.00;96888.06;5020371;28;19929;-70
2023/03/01 07:29:09;;;;;;;;;;;;;;;-0.51;100.00;96882.97;5012901;28;19945;-69
2023/03/01 07:31:35;;;;;;;;;;;;;;;-0.50;100.00;96889.97;5002684;28;19967;-68
2023/03/01 07:34:00;;;;;;;;;;;;;;;-0.51;100.00;96881.06;5004709;28;20335;-70
2023/03/01 07:36:26;;;;;;;;;;;;;;;-0.49;100.00;96886.97;5000660;28;19976;-70
2023/03/01 07:38:52;;;;;;;;;;;;;;;-0.50;100.00;96895.34;5007681;28;19928;-69
2023/03/01 07:41:17;;;;;;;;;;;;;;;-0.46;100.00;96885.59;4999908;28;19922;-68
2023/03/01 07:43:42;;;;;;;;;;;;;;;-0.50;100.00;96890.75;5010493;28;19917;-70
2023/03/01 07:46:09;;;;;;;;;;;;;;;-0.45;100.00;96884.50;5005124;28;19917;-70
2023/03/01 07:48:34;;;;;;;;;;;;;;;-0.49;100.00;96889.66;5007732;28;19917;-71
2023/03/01 07:51:00;;;;;;;;;;;;;;;-0.48;100.00;96896.66;5016650;28;19984;-69
2023/03/01 07:53:25;;;;;;;;;;;;;;;-0.51;100.00;96883.78;5003746;28;19921;-70
2023/03/01 07:55:59;;;;;;;;;;;;;;;-0.51;100.00;96880.28;5009046;28;19917;-71
2023/03/01 07:58:25;;;;;;;;;;;;;;;-0.49;100.00;96886.19;5007450;28;20390;-70
2023/03/01 08:00:50;;;;;;;;;;;;;;;-0.49;100.00;96878.91;5025278;28;19917;-69
2023/03/01 08:03:15;;;;;;;;;;;;;;;-0.48;100.00;96875.13;5019501;28;19918;-70
2023/03/01 08:05:41;;;;;;;;;;;;;;;-0.49;100.00;96876.19;5022308;28;19917;-69
2023/03/01 08:08:06;;;;;;;;;;;;;;;-0.50;100.00;96877.31;5021610;28;20351;-69
2023/03/01 08:10:31;;;;;;;;;;;;;;;-0.48;100.00;96875.13;5023020;28;20286;-71
2023/03/01 08:12:57;;;;;;;;;;;;;;;-0.46;100.00;96878.31;5020625;28;19933;-70
2023/03/01 08:15:22;;;;;;;;;;;;;;;-0.46;100.00;96866.75;5017147;28;20636;-69
2023/03/01 08:17:48;;;;;;;;;;;;;;;-0.41;100.00;96866.69;4994319;28;19925;-70
2023/03/01 08:20:14;;;;;;;;;;;;;;;-0.43;100.00;96880.44;5001409;28;19922;-70
2023/03/01 08:22:39;;;;;;;;;;;;;;;-0.40;100.00;96879.88;5003534;28;19933;-69
2023/03/01 08:25:04;;;;;;;;;;;;;;;-0.32;100.00;96866.84;5000487;28;19918;-68
2023/03/01 08:27:30;;;;;;;;;;;;;;;-0.36;100.00;96874.69;5006152;28;20456;-69
2023/03/01 08:29:55;;;;;;;;;;;;;;;-0.40;100.00;96865.59;5006569;28;20318;-70
2023/03/01 08:32:20;;;;;;;;;;;;;;;-0.36;100.00;96866.63;5000827;28;19936;-69
2023/03/01 08:34:47;;;;;;;;;;;;;;;-0.31;100.00;96863.03;4992445;28;19918;-69
2023/03/01 08:37:13;;;;;;;;;;;;;;;-0.37;100.00;96866.91;5018176;28;19928;-69
2023/03/01 08:39:38;;;;;;;;;;;;;;;-0.27;100.00;96866.75;5022269;28;19980;-69
2023/03/01 08:42:04;;;;;;;;;;;;;;;-0.31;100.00;96863.84;5009323;28;19936;-64
2023/03/01 08:44:29;;;;;;;;;;;;;;;-0.26;100.00;96868.34;5010262;28;19921;-68
2023/03/01 08:46:55;;;;;;;;;;;;;;;-0.26;100.00;96868.34;4989801;28;19932;-67
2023/03/01 08:49:21;;;;;;;;;;;;;;;-0.22;100.00;96866.69;5001380;28;19980;-70
2023/03/01 08:51:47;;;;;;;;;;;;;;;-0.28;100.00;96860.56;5002869;28;19925;-71
2023/03/01 08:54:17;;;;;;;;;;;;;;;-0.24;100.00;96864.25;5000864;28;19924;-70
2023/03/01 08:56:43;;;;;;;;;;;;;;;-0.29;100.00;96858.16;5005664;28;20013;-70
2023/03/01 08:59:09;;;;;;;;;;;;;;;-0.28;100.00;96865.16;5000976;28;20011;-70
2023/03/01 09:01:34;;;;;;;;;;;;;;;-0.24;100.00;96853.50;5001389;28;20016;-69
2023/03/01 09:03:59;;;;;;;;;;;;;;;-0.24;100.00;96850.03;5003178;28;19926;-70
2023/03/01 09:06:25;;;;;;;;;;;;;;;-0.21;100.00;96852.13;4997910;28;20432;-70
2023/03/01 09:08:51;;;;;;;;;;;;;;;-0.12;100.00;96842.28;5008186;28;19925;-70
2023/03/01 09:11:18;;;;;;;;;;;;;;;-0.11;100.00;96838.53;4997226;28;19921;-69
2023/03/01 09:13:44;;;;;;;;;;;;;;;-0.15;100.00;96845.56;5003110;28;20048;-69
2023/03/01 09:16:12;;;;;;;;;;;;;;;-0.08;100.00;96845.19;4999019;28;19918;-70
2023/03/01 09:18:37;;;;;;;;;;;;;;;-0.11;100.00;96851.97;5000623;28;19922;-70
2023/03/01 09:21:12;;;;;;;;;;;;;;;-0.06;100.00;96843.00;5003402;28;19925;-67
2023/03/01 09:23:39;;;;;;;;;;;;;;;-0.05;100.00;96848.09;5014106;28;19924;-70
2023/03/01 09:26:12;;;;;;;;;;;;;;;-0.05;100.00;96844.63;5003894;28;20298;-69
2023/03/01 09:28:38;;;;;;;;;;;;;;;-0.03;100.00;96840.53;5003268;28;20012;-71
2023/03/01 09:31:03;;;;;;;;;;;;;;;0.08;100.00;96840.38;4997924;28;20387;-68
2023/03/01 09:33:30;;;;;;;;;;;;;;;0.10;100.00;96840.88;5001396;28;19918;-71
2023/03/01 09:35:57;;;;;;;;;;;;;;;0.11;100.00;96847.84;4985855;28;19926;-69
2023/03/01 09:38:22;;;;;;;;;;;;;;;0.04;100.00;96836.63;4993966;28;19926;-71
2023/03/01 09:40:47;;;;;;;;;;;;;;;-0.19;100.00;96836.47;5001949;28;19921;-70
2023/03/01 09:43:18;;;;;;;;;;;;;;;-0.13;100.00;96831.81;5001364;28;19926;-70
2023/03/01 09:45:45;;;;;;;;;;;;;;;-0.04;100.00;96830.88;5000372;28;20028;-70
2023/03/01 09:48:16;;;;;;;;;;;;;;;0.04;100.00;96831.25;4981924;28;20401;-70
2023/03/01 09:50:42;;;;;;;;;;;;;;;0.18;100.00;96832.91;5005302;28;19917;-69
2023/03/01 09:53:13;;;;;;;;;;;;;;;0.21;99.66;96830.72;4997939;28;20024;-69
2023/03/01 09:55:42;;;;;;;;;;;;;;;0.30;98.22;96829.72;5005889;28;19944;-70
2023/03/01 09:58:26;;;;;;;;;;;;;;;0.27;98.81;96837.59;4999576;28;20012;-70
2023/03/01 10:00:53;;;;;;;;;;;;;;;0.31;100.00;96825.94;5003865;28;19917;-70
2023/03/01 10:03:41;;;;;;;;;;;;;;;0.36;99.85;96827.72;4998671;28;20573;-71
2023/03/01 10:06:20;;;;;;;;;;;;;;;0.71;98.28;96825.50;4998399;28;19918;-70
2023/03/01 10:08:53;;;;;;;;;;;;;;;0.43;96.82;96820.06;5011021;28;19923;-71
2023/03/01 10:11:20;;;;;;;;;;;;;;;0.41;98.41;96821.47;4995926;28;19917;-69
2023/03/01 10:13:52;;;;;;;;;;;;;;;0.36;99.15;96822.34;5003276;28;20280;-70
2023/03/01 10:16:36;;;;;;;;;;;;;;;0.51;98.24;96827.47;5000667;28;19921;-70
2023/03/01 10:19:03;;;;;;;;;;;;;;;0.54;98.54;96818.78;5007810;28;20312;-72
2023/03/01 10:21:31;;;;;;;;;;;;;;;0.63;97.05;96815.38;5001811;28;20417;-71
2023/03/01 10:23:59;;;;;;;;;;;;;;;0.34;97.67;96816.47;5003320;28;20379;-72
2023/03/01 10:26:37;;;;;;;;;;;;;;;0.59;97.08;96804.41;4992374;28;19925;-71
2023/03/01 10:29:07;;;;;;;;;;;;;;;0.60;96.79;96816.78;5001245;28;19923;-68
2023/03/01 10:31:50;;;;;;;;;;;;;;;0.37;98.01;96816.66;4999749;28;19928;-71
2023/03/01 10:34:15;;;;;;;;;;;;;;;0.12;98.79;96817.13;4994153;28;20406;-68
2023/03/01 10:36:41;;;;;;;;;;;;;;;0.18;100.00;96814.06;5001915;28;20012;-70
2023/03/01 10:39:15;;;;;;;;;;;;;;;0.44;97.62;96812.81;4997085;28;20337;-70
2023/03/01 10:42:00;;;;;;;;;;;;;;;0.15;98.65;96813.84;5014008;28;20003;-70
2023/03/01 10:44:35;;;;;;;;;;;;;;;0.16;97.18;96810.88;5002962;28;19925;-70
2023/03/01 10:47:01;;;;;;;;;;;;;;;0.42;96.99;96796.13;5000993;28;19936;-69
2023/03/01 10:49:27;;;;;;;;;;;;;;;0.19;96.72;96801.38;4996489;28;19921;-72
2023/03/01 10:51:53;;;;;;;;;;;;;;;0.52;97.14;96807.50;5001837;28;20271;-68
2023/03/01 10:54:25;;;;;;;;;;;;;;;0.53;95.31;96802.91;4996384;28;20328;-70
2023/03/01 10:57:00;;;;;;;;;;;;;;;0.33;98.01;96793.31;5001336;28;20013;-70
2023/03/01 10:59:30;;;;;;;;;;;;;;;0.30;96.40;96796.59;4998040;28;19924;-70
2023/03/01 11:02:16;;;;;;;;;;;;;;;0.22;97.13;96791.88;5002374;28;19921;-70
2023/03/01 11:05:00;;;;;;;;;;;;;;;0.42;96.62;96788.03;4994169;28;20016;-70
2023/03/01 11:07:26;;;;;;;;;;;;;;;0.47;95.61;96799.53;5009781;28;19917;-70
2023/03/01 11:09:52;;;;;;;;;;;;;;;0.51;95.57;96797.03;5028049;28;19924;-70
2023/03/01 11:12:17;;;;;;;;;;;;;;;0.61;95.74;96798.72;4997933;28;19928;-69
2023/03/01 11:14:50;;;;;;;;;;;;;;;0.80;94.63;96787.84;5002470;28;19925;-70
2023/03/01 11:17:15;;;;;;;;;;;;;;;0.79;93.39;96791.63;4995737;28;19929;-69
2023/03/01 11:19:40;;;;;;;;;;;;;;;0.74;94.38;96797.94;5001411;28;19917;-70
2023/03/01 11:22:16;;;;;;;;;;;;;;;0.49;95.60;96783.06;4996293;28;19921;-69
2023/03/01 11:24:49;;;;;;;;;;;;;;;0.24;95.82;96781.66;5002034;28;19928;-70
2023/03/01 11:27:26;;;;;;;;;;;;;;;0.16;96.52;96786.63;4997668;28;19926;-70
2023/03/01 11:29:57;;;;;;;;;;;;;;;0.43;95.53;96784.25;4984941;28;19972;-70
2023/03/01 11:32:24;;;;;;;;;;;;;;;0.42;95.21;96782.66;4995528;28;20451;-71
2023/03/01 11:34:53;;;;;;;;;;;;;;;0.65;94.83;96781.66;5000606;28;19922;-68
2023/03/01 11:37:28;;;;;;;;;;;;;;;0.68;95.63;96781.03;4995355;28;20382;-69
2023/03/01 11:39:55;;;;;;;;;;;;;;;0.78;94.04;96776.56;5001144;28;19922;-69
2023/03/01 11:42:31;;;;;;;;;;;;;;;0.67;93.78;96771.38;4995530;28;19922;-72
2023/03/01 11:44:59;;;;;;;;;;;;;;;0.66;95.51;96769.75;5002955;28;19951;-71
2023/03/01 11:47:39;;;;;;;;;;;;;;;0.72;94.98;96763.19;5000286;28;19918;-69
2023/03/01 11:50:12;;;;;;;;;;;;;;;0.75;94.37;96772.56;5001860;28;19921;-69
2023/03/01 11:52:45;;;;;;;;;;;;;;;1.03;92.29;96775.22;5000276;28;19918;-69
2023/03/01 11:55:20;;;;;;;;;;;;;;;0.67;92.84;96765.19;4994652;28;19929;-69
2023/03/01 11:58:04;;;;;;;;;;;;;;;0.72;92.37;96770.44;5001047;28;19929;-70
2023/03/01 12:00:32;;;;;;;;;;;;;;;1.01;92.00;96762.03;4998836;28;19928;-71
2023/03/01 12:03:17;;;;;;;;;;;;;;;0.94;91.52;96754.34;4998495;28;19925;-71
2023/03/01 12:05:43;;;;;;;;;;;;;;;0.59;92.87;96763.19;5000492;28;19929;-72
2023/03/01 12:08:13;;;;;;;;;;;;;;;0.83;92.36;96754.88;4996610;28;19917;-70
2023/03/01 12:10:47;;;;;;;;;;;;;;;0.60;91.93;96749.41;4985626;28;20069;-71
2023/03/01 12:13:31;;;;;;;;;;;;;;;0.81;93.62;96748.97;4998788;28;20335;-72
2023/03/01 12:16:15;;;;;;;;;;;;;;;0.90;91.10;96744.47;4999516;28;19917;-72
2023/03/01 12:19:13;;;;;;;;;;;;;;;0.88;91.58;96738.59;5005274;28;19923;-71
2023/03/01 12:21:41;;;;;;;;;;;;;;;0.76;92.16;96739.13;4996651;28;20012;-71
2023/03/01 12:24:07;;;;;;;;;;;;;;;0.95;91.18;96734.38;4993516;28;19972;-71
2023/03/01 12:26:34;;;;;;;;;;;;;;;1.09;90.40;96736.25;4997823;28;19925;-71
2023/03/01 12:29:20;;;;;;;;;;;;;;;0.93;91.52;96730.38;5001419;28;19918;-71
2023/03/01 12:32:00;;;;;;;;;;;;;;;0.25;94.12;96730.13;5000322;28;19932;-71
2023/03/01 12:34:34;;;;;;;;;;;;;;;0.33;95.31;96734.06;4995944;28;20027;-72
2023/03/01 12:37:18;;;;;;;;;;;;;;;0.44;94.86;96723.88;5000146;28;19968;-70
2023/03/01 12:39:43;;;;;;;;;;;;;;;0.53;92.57;96719.38;5002280;28;19922;-71
2023/03/01 12:42:14;;;;;;;;;;;;;;;0.68;92.52;96718.25;5001413;28;19933;-72
2023/03/01 12:44:49;;;;;;;;;;;;;;;0.53;93.70;96713.97;5016206;28;19940;-71
2023/03/01 12:47:36;;;;;;;;;;;;;;;0.81;92.71;96720.13;5011237;28;19925;-70